JA87MW RJFM-RJFM

Flight info

Callsign JA87MW
Flight time 0h 31m
Altitude 00000
Route N0110VFR LCL
Aircraft SR22/L-SDLOV/LB1

Departure

Time 2026-05-01 12:37
Airport Miyazaki Airport (RJFM)

Arrival

Time 2026-05-01 13:09
Airport Miyazaki Airport (RJFM)
Time Latitude Longitude Altitude Speed Heading
2026-05-01 12:27 31.87875 131.44286 30 ft 0 kts 264°
2026-05-01 12:31 31.87871 131.44276 30 ft 5 kts 221°
2026-05-01 12:32 31.87838 131.44312 29 ft 12 kts 85°
2026-05-01 12:32 31.87861 131.44643 30 ft 24 kts 85°
2026-05-01 12:32 31.87875 131.44839 29 ft 23 kts 85°
2026-05-01 12:33 31.87844 131.44976 29 ft 14 kts 116°
2026-05-01 12:33 31.87834 131.45076 29 ft 7 kts 111°
2026-05-01 12:33 31.87824 131.45086 29 ft 0 kts 185°
2026-05-01 12:36 31.87761 131.45091 28 ft 13 kts 175°
2026-05-01 12:36 31.87728 131.45059 28 ft 0 kts 265°
2026-05-01 12:36 31.87728 131.45057 26 ft 5 kts 265°
2026-05-01 12:37 31.87702 131.44685 26 ft 79 kts 265°
2026-05-01 12:37 31.87638 131.43984 310 ft 82 kts 265°
2026-05-01 12:37 31.87571 131.43295 578 ft 89 kts 265°
2026-05-01 12:37 31.87493 131.42561 941 ft 94 kts 264°
2026-05-01 12:38 31.87411 131.41710 1058 ft 109 kts 264°
2026-05-01 12:38 31.87640 131.40916 1060 ft 112 kts 330°
2026-05-01 12:38 31.88393 131.40773 1051 ft 110 kts 354°
2026-05-01 12:38 31.89166 131.40702 1021 ft 112 kts 355°
2026-05-01 12:39 31.89881 131.40929 966 ft 115 kts 53°
2026-05-01 12:39 31.90019 131.41530 920 ft 114 kts 85°
2026-05-01 12:39 31.90090 131.42442 977 ft 112 kts 85°
2026-05-01 12:39 31.90166 131.43359 998 ft 115 kts 84°
2026-05-01 12:40 31.90245 131.44304 1016 ft 115 kts 85°
2026-05-01 12:40 31.90318 131.45230 1033 ft 115 kts 84°
2026-05-01 12:40 31.90402 131.46167 1030 ft 113 kts 84°
2026-05-01 12:40 31.90474 131.47056 1014 ft 106 kts 85°
2026-05-01 12:41 31.90540 131.47886 1009 ft 98 kts 85°
2026-05-01 12:41 31.90604 131.48677 993 ft 97 kts 85°
2026-05-01 12:41 31.90809 131.49383 989 ft 94 kts 26°
2026-05-01 12:41 31.91329 131.49119 955 ft 93 kts 284°
2026-05-01 12:42 31.91009 131.48567 946 ft 96 kts 185°
2026-05-01 12:42 31.90605 131.49058 965 ft 95 kts 84°
2026-05-01 12:42 31.91080 131.49430 983 ft 93 kts 340°
2026-05-01 12:42 31.91276 131.48817 992 ft 93 kts 238°
2026-05-01 12:43 31.90703 131.48728 990 ft 97 kts 137°
2026-05-01 12:43 31.90725 131.49424 999 ft 96 kts 36°
2026-05-01 12:43 31.91278 131.49264 983 ft 92 kts 292°
2026-05-01 12:43 31.91008 131.48694 968 ft 94 kts 187°
2026-05-01 12:44 31.90610 131.49164 1011 ft 95 kts 81°
2026-05-01 12:44 31.91100 131.49540 1006 ft 95 kts 341°
2026-05-01 12:44 31.90711 131.48730 947 ft 97 kts 177°
2026-05-01 12:45 31.89370 131.48877 729 ft 92 kts 176°
2026-05-01 12:45 31.88769 131.48963 571 ft 86 kts 174°
2026-05-01 12:45 31.88181 131.49006 452 ft 85 kts 200°
2026-05-01 12:46 31.87950 131.48430 338 ft 87 kts 270°
2026-05-01 12:46 31.87911 131.47735 263 ft 85 kts 266°
2026-05-01 12:46 31.87865 131.47046 196 ft 85 kts 265°
2026-05-01 12:46 31.87821 131.46356 90 ft 84 kts 265°
2026-05-01 12:47 31.87773 131.45680 27 ft 81 kts 265°
2026-05-01 12:47 31.87720 131.44970 107 ft 93 kts 265°
2026-05-01 12:47 31.87654 131.44204 449 ft 97 kts 264°
2026-05-01 12:47 31.87594 131.43404 812 ft 101 kts 265°
2026-05-01 12:48 31.87515 131.42564 1054 ft 106 kts 264°
2026-05-01 12:48 31.87436 131.41679 1029 ft 109 kts 264°
2026-05-01 12:48 31.87712 131.40921 1002 ft 111 kts 338°
2026-05-01 12:48 31.88480 131.40810 997 ft 111 kts 354°
2026-05-01 12:49 31.89251 131.40738 992 ft 111 kts 354°
2026-05-01 12:49 31.89957 131.40980 983 ft 113 kts 57°
2026-05-01 12:49 31.90094 131.41892 968 ft 115 kts 85°
2026-05-01 12:49 31.90159 131.42820 991 ft 114 kts 84°
2026-05-01 12:50 31.90236 131.43759 945 ft 116 kts 84°
2026-05-01 12:50 31.90314 131.44693 993 ft 113 kts 85°
2026-05-01 12:50 31.90563 131.45546 993 ft 114 kts 37°
2026-05-01 12:50 31.91280 131.45501 976 ft 113 kts 315°
2026-05-01 12:51 31.91326 131.44663 1001 ft 110 kts 231°
2026-05-01 12:51 31.90614 131.44530 985 ft 115 kts 148°
2026-05-01 12:51 31.91049 131.45683 1030 ft 111 kts 339°
2026-05-01 12:52 31.91393 131.44950 1009 ft 112 kts 255°
2026-05-01 12:52 31.90374 131.45199 963 ft 115 kts 82°
2026-05-01 12:52 31.90906 131.45746 999 ft 110 kts 354°
2026-05-01 12:53 31.90903 131.44582 1000 ft 110 kts 185°
2026-05-01 12:53 31.90274 131.45007 964 ft 114 kts 107°
2026-05-01 12:53 31.90522 131.45813 1003 ft 110 kts 28°
2026-05-01 12:54 31.91193 131.45643 996 ft 108 kts 301°
2026-05-01 12:54 31.90517 131.44660 1017 ft 111 kts 148°
2026-05-01 12:54 31.90357 131.45463 1031 ft 112 kts 57°
2026-05-01 12:55 31.91557 131.45286 996 ft 114 kts 279°
2026-05-01 12:55 31.91179 131.44556 996 ft 115 kts 198°
2026-05-01 12:55 31.90469 131.44865 959 ft 119 kts 127°
2026-05-01 12:56 31.90292 131.45788 992 ft 117 kts 88°
2026-05-01 12:56 31.90363 131.46727 983 ft 115 kts 86°
2026-05-01 12:56 31.90446 131.47653 962 ft 110 kts 83°
2026-05-01 12:56 31.90361 131.48435 915 ft 96 kts 141°
2026-05-01 12:57 31.89726 131.48620 732 ft 98 kts 175°
2026-05-01 12:57 31.88477 131.48810 464 ft 86 kts 175°
2026-05-01 12:57 31.87999 131.48547 392 ft 83 kts 250°
2026-05-01 12:58 31.87922 131.47859 295 ft 84 kts 267°
2026-05-01 12:58 31.87893 131.47170 216 ft 85 kts 264°
2026-05-01 12:58 31.87828 131.46481 118 ft 86 kts 266°
2026-05-01 12:59 31.87731 131.45094 69 ft 94 kts 264°
2026-05-01 12:59 31.87657 131.44293 361 ft 101 kts 263°
2026-05-01 12:59 31.87505 131.42623 1001 ft 106 kts 264°
2026-05-01 13:00 31.87615 131.40933 1006 ft 110 kts 328°
2026-05-01 13:00 31.88373 131.40765 1011 ft 113 kts 354°
2026-05-01 13:01 31.89893 131.40901 1016 ft 115 kts 53°
2026-05-01 13:01 31.90066 131.41835 974 ft 118 kts 85°
2026-05-01 13:01 31.90220 131.43744 1001 ft 115 kts 85°
2026-05-01 13:02 31.90362 131.44668 1021 ft 113 kts 56°
2026-05-01 13:07 31.88505 131.49787 701 ft 81 kts 178°
2026-05-01 13:07 31.88075 131.49424 574 ft 84 kts 243°
2026-05-01 13:07 31.87990 131.48741 453 ft 85 kts 264°
2026-05-01 13:08 31.87932 131.48040 332 ft 86 kts 269°
2026-05-01 13:08 31.87882 131.47348 235 ft 86 kts 266°
2026-05-01 13:08 31.87838 131.46643 126 ft 88 kts 266°
2026-05-01 13:08 31.87791 131.45939 33 ft 82 kts 266°
2026-05-01 13:09 31.87751 131.45382 27 ft 52 kts 265°
2026-05-01 13:09 31.87736 131.45121 26 ft 15 kts 285°
2026-05-01 13:09 31.87805 131.45074 28 ft 12 kts 306°
2026-05-01 13:09 31.87836 131.45035 29 ft 4 kts 30°
2026-05-01 13:10 31.87840 131.45051 29 ft 0 kts 114°
2026-05-01 13:10 31.87838 131.45054 29 ft 0 kts 149°
2026-05-01 13:10 31.87836 131.45055 29 ft 0 kts 163°
2026-05-01 13:17 31.87730 131.45076 28 ft 0 kts 265°
2026-05-01 13:17 31.87727 131.45038 26 ft 28 kts 265°
2026-05-01 13:18 31.87621 131.43743 298 ft 93 kts 263°
2026-05-01 13:18 31.87551 131.42928 473 ft 104 kts 264°
2026-05-01 13:18 31.87466 131.42057 847 ft 106 kts 264°
2026-05-01 13:18 31.87509 131.41166 1019 ft 117 kts 304°
2026-05-01 13:19 31.88232 131.40869 992 ft 114 kts 354°
2026-05-01 13:19 31.89013 131.40786 984 ft 112 kts 353°
2026-05-01 13:19 31.90063 131.41661 954 ft 113 kts 84°
2026-05-01 13:20 31.90132 131.42592 1010 ft 115 kts 86°
2026-05-01 13:20 31.90198 131.43522 1011 ft 114 kts 84°
2026-05-01 13:20 31.90264 131.44452 1005 ft 114 kts 84°
2026-05-01 13:21 31.90420 131.46216 1001 ft 111 kts 83°
2026-05-01 13:21 31.90496 131.47065 996 ft 104 kts 84°
2026-05-01 13:21 31.90564 131.47889 975 ft 99 kts 86°
2026-05-01 13:21 31.90631 131.48698 944 ft 98 kts 85°
2026-05-01 13:22 31.91051 131.49199 927 ft 94 kts 352°
2026-05-01 13:22 31.91384 131.48656 936 ft 93 kts 254°
2026-05-01 13:22 31.90872 131.48370 956 ft 96 kts 154°
2026-05-01 13:22 31.90721 131.49038 1006 ft 95 kts 50°
2026-05-01 13:23 31.91292 131.49086 1004 ft 95 kts 309°
2026-05-01 13:23 31.91201 131.48418 984 ft 95 kts 207°
2026-05-01 13:23 31.90651 131.48657 982 ft 98 kts 110°
2026-05-01 13:23 31.90926 131.49282 980 ft 97 kts
2026-05-01 13:24 31.91388 131.48866 978 ft 95 kts 269°
2026-05-01 13:24 31.90939 131.48398 944 ft 100 kts 178°
2026-05-01 13:24 31.90216 131.48488 774 ft 106 kts 175°
2026-05-01 13:25 31.88866 131.48664 591 ft 89 kts 174°
2026-05-01 13:25 31.88457 131.48721 503 ft 86 kts 175°
2026-05-01 13:25 31.87941 131.48530 391 ft 83 kts 245°
2026-05-01 13:25 31.87916 131.47845 276 ft 88 kts 263°
2026-05-01 13:26 31.87865 131.47125 202 ft 89 kts 266°
2026-05-01 13:26 31.87826 131.46420 111 ft 84 kts 265°
2026-05-01 13:26 31.87775 131.45738 28 ft 80 kts 266°
2026-05-01 13:26 31.87730 131.45091 68 ft 94 kts 264°
2026-05-01 13:27 31.87654 131.44309 446 ft 97 kts 264°
2026-05-01 13:27 31.87582 131.43509 854 ft 100 kts 263°
2026-05-01 13:27 31.87443 131.41815 1002 ft 108 kts 264°
2026-05-01 13:28 31.88471 131.40939 990 ft 113 kts 353°
2026-05-01 13:28 31.89253 131.40847 1013 ft 114 kts 353°
2026-05-01 13:29 31.90775 131.40494 1048 ft 113 kts 309°
2026-05-01 13:29 31.90052 131.39572 999 ft 113 kts 145°
2026-05-01 13:30 31.90145 131.39590 997 ft 114 kts 162°
2026-05-01 13:31 31.90371 131.40837 1024 ft 112 kts 351°
2026-05-01 13:31 31.89847 131.40073 1015 ft 115 kts 99°
2026-05-01 13:32 31.90883 131.40451 964 ft 112 kts 290°
2026-05-01 13:33 31.90079 131.40620 986 ft 112 kts 34°
2026-05-01 13:33 31.90790 131.39715 967 ft 113 kts 228°
2026-05-01 13:34 31.89989 131.40455 989 ft 114 kts 53°
2026-05-01 13:34 31.90867 131.39824 995 ft 113 kts 242°
2026-05-01 13:35 31.89882 131.40289 989 ft 113 kts 70°
2026-05-01 13:35 31.90510 131.40708 1001 ft 113 kts 349°
2026-05-01 13:35 31.90452 131.39438 987 ft 113 kts 185°
2026-05-01 13:36 31.89872 131.39958 969 ft 115 kts 99°
2026-05-01 13:36 31.89941 131.40890 988 ft 114 kts 84°
2026-05-01 13:36 31.90106 131.42755 1050 ft 115 kts 85°
2026-05-01 13:37 31.90167 131.43678 1063 ft 116 kts 82°
2026-05-01 13:37 31.90274 131.44623 1035 ft 116 kts 74°
2026-05-01 13:37 31.90875 131.45097 1015 ft 113 kts 348°
2026-05-01 13:37 31.91296 131.44430 1000 ft 111 kts 262°
2026-05-01 13:38 31.90205 131.44389 962 ft 114 kts 101°
2026-05-01 13:38 31.90563 131.45110 1002 ft 112 kts 14°
2026-05-01 13:38 31.91205 131.44736 1015 ft 115 kts 290°
2026-05-01 13:39 31.90965 131.43927 983 ft 114 kts 210°
2026-05-01 13:39 31.90265 131.44100 984 ft 112 kts 125°
2026-05-01 13:39 31.90357 131.44920 1005 ft 112 kts 37°
2026-05-01 13:39 31.91066 131.44870 997 ft 111 kts 311°
2026-05-01 13:40 31.91057 131.44051 983 ft 112 kts 225°
2026-05-01 13:40 31.90340 131.44011 999 ft 113 kts 141°
2026-05-01 13:40 31.90219 131.44850 1014 ft 112 kts 56°
2026-05-01 13:40 31.90910 131.45060 1009 ft 113 kts 329°
2026-05-01 13:41 31.91169 131.44269 969 ft 112 kts 249°
2026-05-01 13:41 31.90540 131.43863 968 ft 114 kts 169°
2026-05-01 13:41 31.90087 131.44531 1002 ft 112 kts 85°
2026-05-01 13:41 31.90585 131.45144 1059 ft 112 kts 15°
2026-05-01 13:42 31.91232 131.44802 1037 ft 111 kts 294°
2026-05-01 13:42 31.91064 131.44002 989 ft 111 kts 214°
2026-05-01 13:42 31.90380 131.44145 988 ft 113 kts 124°
2026-05-01 13:42 31.90318 131.45050 981 ft 114 kts 85°
2026-05-01 13:43 31.90394 131.45973 987 ft 111 kts 83°
2026-05-01 13:43 31.90481 131.46840 1003 ft 102 kts 85°
2026-05-01 13:43 31.90547 131.47629 1006 ft 95 kts 86°
2026-05-01 13:43 31.90433 131.48334 1001 ft 87 kts 146°
2026-05-01 13:44 31.89822 131.48482 885 ft 99 kts 174°
2026-05-01 13:44 31.89125 131.48586 839 ft 99 kts 170°
2026-05-01 13:44 31.88707 131.49167 944 ft 105 kts 89°
2026-05-01 13:44 31.89192 131.49733 992 ft 108 kts 358°
2026-05-01 13:45 31.89927 131.49514 1013 ft 111 kts 338°
2026-05-01 13:45 31.90561 131.48966 1083 ft 113 kts 317°
2026-05-01 13:45 31.91149 131.48335 1076 ft 117 kts 315°
2026-05-01 13:45 31.91738 131.47704 1050 ft 113 kts 319°
2026-05-01 13:46 31.92322 131.47086 957 ft 113 kts 315°
2026-05-01 13:46 31.92867 131.46434 953 ft 111 kts 314°
2026-05-01 13:46 31.93589 131.46400 896 ft 117 kts 41°
2026-05-01 13:46 31.93683 131.47250 888 ft 115 kts 126°
2026-05-01 13:47 31.93004 131.47661 880 ft 113 kts 164°
2026-05-01 13:47 31.92261 131.47976 896 ft 112 kts 159°
2026-05-01 13:47 31.91559 131.48312 951 ft 107 kts 159°
2026-05-01 13:47 31.90874 131.48596 962 ft 107 kts 174°
2026-05-01 13:48 31.90171 131.48692 919 ft 100 kts 175°
2026-05-01 13:48 31.89490 131.48774 804 ft 92 kts 176°
2026-05-01 13:48 31.88858 131.48857 682 ft 92 kts 175°
2026-05-01 13:48 31.88222 131.48884 552 ft 92 kts 204°
2026-05-01 13:49 31.87950 131.48274 391 ft 89 kts 264°
2026-05-01 13:49 31.87892 131.47583 305 ft 83 kts 266°
2026-05-01 13:49 31.87856 131.46906 218 ft 84 kts 266°
2026-05-01 13:49 31.87810 131.46221 91 ft 83 kts 265°
2026-05-01 13:50 31.87763 131.45547 27 ft 80 kts 266°
2026-05-01 13:50 31.87707 131.44792 184 ft 93 kts 264°
2026-05-01 13:50 31.87638 131.44055 480 ft 92 kts 263°
2026-05-01 13:50 31.87563 131.43263 728 ft 105 kts 263°
2026-05-01 13:51 31.87488 131.42392 1006 ft 109 kts 264°
2026-05-01 13:51 31.87410 131.41499 1041 ft 110 kts 264°
2026-05-01 13:51 31.87326 131.40595 1033 ft 112 kts 263°
2026-05-01 13:51 31.87261 131.39684 1056 ft 112 kts 264°
2026-05-01 13:52 31.87379 131.38814 1012 ft 116 kts 316°
2026-05-01 13:52 31.88029 131.38298 1059 ft 109 kts 326°
2026-05-01 13:52 31.88670 131.37799 1011 ft 111 kts 326°
2026-05-01 13:52 31.89419 131.37566 981 ft 113 kts 354°
2026-05-01 13:53 31.90205 131.37490 1001 ft 114 kts 354°
2026-05-01 13:53 31.91763 131.37345 995 ft 111 kts 354°
2026-05-01 13:53 31.92541 131.37270 989 ft 112 kts 353°
2026-05-01 13:54 31.93319 131.37203 997 ft 112 kts 355°
2026-05-01 13:54 31.94093 131.37123 991 ft 113 kts 353°
2026-05-01 13:54 31.94881 131.37037 993 ft 113 kts 354°
2026-05-01 13:54 31.95665 131.37010 988 ft 113 kts
2026-05-01 13:55 31.96423 131.37226 996 ft 114 kts 12°
2026-05-01 13:55 31.97207 131.37437 997 ft 114 kts 12°
2026-05-01 13:55 31.97972 131.37650 999 ft 114 kts 13°
2026-05-01 13:55 31.98739 131.37862 996 ft 112 kts 12°
2026-05-01 13:56 31.99503 131.38078 994 ft 113 kts 12°
2026-05-01 13:56 32.00261 131.38287 991 ft 111 kts 12°
2026-05-01 13:56 32.01016 131.38493 993 ft 110 kts 12°
2026-05-01 13:56 32.01758 131.38699 993 ft 109 kts 12°
2026-05-01 13:57 32.02515 131.38908 996 ft 112 kts 13°
2026-05-01 13:57 32.03020 131.39048 996 ft 113 kts 12°
2026-05-01 13:57 32.04032 131.39325 1003 ft 114 kts 12°
2026-05-01 13:57 32.04708 131.39765 998 ft 116 kts 59°
2026-05-01 13:58 32.04706 131.40671 1002 ft 113 kts 107°
2026-05-01 13:58 32.04534 131.41578 1005 ft 113 kts 102°
2026-05-01 13:58 32.04371 131.42486 1008 ft 114 kts 102°
2026-05-01 13:58 32.04206 131.43413 1009 ft 116 kts 102°
2026-05-01 13:59 32.04032 131.44348 1011 ft 118 kts 102°
2026-05-01 13:59 32.03844 131.45287 1006 ft 118 kts 114°
2026-05-01 13:59 32.03212 131.45799 1003 ft 115 kts 181°
2026-05-01 13:59 32.02413 131.45693 1010 ft 117 kts 187°
2026-05-01 14:00 32.01598 131.45592 1010 ft 118 kts 187°
2026-05-01 14:00 32.00776 131.45484 1010 ft 119 kts 187°
2026-05-01 14:00 31.99958 131.45370 1008 ft 117 kts 187°
2026-05-01 14:00 31.99193 131.45100 995 ft 115 kts 217°
2026-05-01 14:01 31.98663 131.44411 992 ft 114 kts 234°
2026-05-01 14:01 31.98186 131.43659 996 ft 114 kts 234°
2026-05-01 14:01 31.97912 131.42822 932 ft 116 kts 284°
2026-05-01 14:01 31.98479 131.42272 980 ft 113 kts 355°
2026-05-01 14:02 31.99157 131.42651 999 ft 117 kts 62°
2026-05-01 14:02 31.98996 131.43509 1010 ft 118 kts 145°
2026-05-01 14:02 31.98224 131.43518 954 ft 121 kts 217°
2026-05-01 14:02 31.98028 131.42655 1009 ft 117 kts 296°
2026-05-01 14:03 31.98728 131.42310 1013 ft 121 kts 19°
2026-05-01 14:03 31.99128 131.43101 1003 ft 123 kts 98°
2026-05-01 14:03 31.98558 131.43733 1012 ft 119 kts 176°
2026-05-01 14:03 31.97923 131.43239 1019 ft 116 kts 252°
2026-05-01 14:04 31.98189 131.42429 1028 ft 117 kts 333°
2026-05-01 14:04 31.98953 131.42579 1030 ft 121 kts 47°
2026-05-01 14:04 31.99016 131.43496 1023 ft 123 kts 125°
2026-05-01 14:04 31.98545 131.43821 1022 ft 120 kts 178°
2026-05-01 14:05 31.97946 131.42954 1035 ft 117 kts 284°
2026-05-01 14:05 31.98543 131.42371 1034 ft 121 kts 355°
2026-05-01 14:05 31.99208 131.42856 1045 ft 125 kts 71°
2026-05-01 14:05 31.98929 131.43755 1019 ft 126 kts 151°
2026-05-01 14:06 31.98121 131.43680 1072 ft 121 kts 219°
2026-05-01 14:06 31.97806 131.42800 1058 ft 120 kts 263°
2026-05-01 14:06 31.97706 131.41840 1082 ft 116 kts 263°
2026-05-01 14:06 31.97626 131.40907 1039 ft 114 kts 265°
2026-05-01 14:07 31.97561 131.39988 1024 ft 111 kts 266°
2026-05-01 14:07 31.97537 131.39073 980 ft 112 kts 269°
2026-05-01 14:07 31.97242 131.38242 890 ft 118 kts 222°
2026-05-01 14:08 31.95982 131.38832 896 ft 113 kts 112°
2026-05-01 14:08 31.95597 131.39620 975 ft 113 kts 133°
2026-05-01 14:08 31.94977 131.40198 1024 ft 114 kts 150°
2026-05-01 14:08 31.94274 131.40628 1038 ft 114 kts 160°
2026-05-01 14:09 31.93491 131.40777 1000 ft 116 kts 188°
2026-05-01 14:09 31.92724 131.40552 965 ft 112 kts 195°
2026-05-01 14:09 31.91964 131.40387 952 ft 110 kts 188°
2026-05-01 14:09 31.91223 131.40517 943 ft 110 kts 150°
2026-05-01 14:10 31.90680 131.41175 902 ft 113 kts 129°
2026-05-01 14:10 31.90365 131.41647 953 ft 111 kts 127°
2026-05-01 14:10 31.90130 131.42499 1012 ft 114 kts 88°
2026-05-01 14:10 31.90198 131.43441 1029 ft 116 kts 84°
2026-05-01 14:11 31.90282 131.44384 1048 ft 116 kts 85°
2026-05-01 14:11 31.90452 131.46276 1043 ft 114 kts 82°
2026-05-01 14:11 31.90530 131.47194 999 ft 110 kts 84°
2026-05-01 14:12 31.90594 131.48046 995 ft 97 kts 91°
2026-05-01 14:12 31.90183 131.48534 924 ft 95 kts 175°
2026-05-01 14:12 31.89518 131.48617 826 ft 96 kts 175°
2026-05-01 14:12 31.88896 131.48696 697 ft 87 kts 175°
2026-05-01 14:13 31.88317 131.48760 556 ft 84 kts 182°
2026-05-01 14:13 31.87965 131.48316 408 ft 85 kts 262°
2026-05-01 14:13 31.87908 131.47622 317 ft 85 kts 267°
2026-05-01 14:13 31.87861 131.46924 225 ft 85 kts 266°
2026-05-01 14:14 31.87810 131.46221 107 ft 87 kts 266°
2026-05-01 14:14 31.87763 131.45546 27 ft 72 kts 264°
2026-05-01 14:14 31.87716 131.44900 115 ft 88 kts 265°
2026-05-01 14:14 31.87660 131.44195 458 ft 85 kts 264°
2026-05-01 14:15 31.87607 131.43498 788 ft 87 kts 265°
2026-05-01 14:15 31.87558 131.42758 936 ft 98 kts 265°
2026-05-01 14:15 31.87491 131.41919 994 ft 108 kts 264°
2026-05-01 14:15 31.87613 131.41052 1023 ft 113 kts 307°
2026-05-01 14:16 31.88305 131.40683 1026 ft 115 kts
2026-05-01 14:16 31.88863 131.41269 990 ft 116 kts 80°
2026-05-01 14:16 31.88619 131.42170 922 ft 118 kts 118°
2026-05-01 14:16 31.88564 131.43093 981 ft 116 kts 82°
2026-05-01 14:17 31.88658 131.44035 1023 ft 118 kts 84°
2026-05-01 14:17 31.88735 131.44977 1054 ft 111 kts 85°
2026-05-01 14:17 31.88805 131.45784 1024 ft 91 kts 84°
2026-05-01 14:17 31.88821 131.46498 873 ft 89 kts 107°
2026-05-01 14:18 31.88407 131.46963 581 ft 85 kts 172°
2026-05-01 14:18 31.87905 131.46711 288 ft 83 kts 239°
2026-05-01 14:18 31.87807 131.46077 86 ft 86 kts 264°
2026-05-01 14:18 31.87755 131.45650 192 ft 88 kts 263°
2026-05-01 14:19 31.87699 131.44710 466 ft 87 kts 269°
2026-05-01 14:19 31.87644 131.44002 675 ft 87 kts 263°
2026-05-01 14:19 31.87568 131.43212 935 ft 104 kts 263°
2026-05-01 14:19 31.87491 131.42335 1028 ft 111 kts 266°
2026-05-01 14:20 31.87464 131.41432 1069 ft 110 kts 288°
2026-05-01 14:20 31.88871 131.40907 1015 ft 113 kts 355°
2026-05-01 14:20 31.89651 131.40893 1004 ft 112 kts 19°
2026-05-01 14:21 31.90022 131.41640 967 ft 118 kts 86°
2026-05-01 14:21 31.90104 131.42594 1001 ft 117 kts 83°
2026-05-01 14:21 31.90188 131.43546 993 ft 116 kts 85°
2026-05-01 14:22 31.90347 131.45433 1008 ft 117 kts 83°
2026-05-01 14:22 31.90437 131.46372 1002 ft 112 kts 84°
2026-05-01 14:22 31.90512 131.47250 1004 ft 104 kts 85°
2026-05-01 14:22 31.90533 131.48057 961 ft 95 kts 109°
2026-05-01 14:23 31.90003 131.48406 828 ft 95 kts 174°
2026-05-01 14:23 31.89346 131.48479 694 ft 93 kts 176°
2026-05-01 14:23 31.88731 131.48555 590 ft 84 kts 176°
2026-05-01 14:23 31.88150 131.48537 407 ft 86 kts 214°
2026-05-01 14:24 31.87935 131.47914 244 ft 86 kts 265°
2026-05-01 14:24 31.87880 131.47231 177 ft 83 kts 265°
2026-05-01 14:24 31.87835 131.46561 117 ft 84 kts 266°
2026-05-01 14:24 31.87785 131.45863 33 ft 86 kts 266°
2026-05-01 14:25 31.87739 131.45177 66 ft 90 kts 265°
2026-05-01 14:25 31.87675 131.44442 388 ft 94 kts 264°
2026-05-01 14:25 31.87605 131.43646 755 ft 100 kts 264°
2026-05-01 14:25 31.87538 131.42796 1040 ft 107 kts 264°
2026-05-01 14:26 31.87456 131.41912 1035 ft 110 kts 264°
2026-05-01 14:26 31.88512 131.41051 1014 ft 114 kts 354°
2026-05-01 14:26 31.89305 131.40969 1002 ft 115 kts 354°
2026-05-01 14:27 31.90004 131.41273 979 ft 116 kts 63°
2026-05-01 14:27 31.90106 131.42202 986 ft 113 kts 87°
2026-05-01 14:27 31.90172 131.43114 993 ft 111 kts 85°
2026-05-01 14:28 31.90324 131.44944 1022 ft 115 kts 85°
2026-05-01 14:28 31.90396 131.45885 1040 ft 115 kts 85°
2026-05-01 14:28 31.90465 131.46793 1039 ft 108 kts 85°
2026-05-01 14:28 31.90527 131.47649 1021 ft 101 kts 85°
2026-05-01 14:29 31.90468 131.48416 991 ft 94 kts 134°
2026-05-01 14:29 31.89854 131.48635 860 ft 95 kts 175°
2026-05-01 14:30 31.88017 131.48578 370 ft 85 kts 250°
2026-05-01 14:30 31.87930 131.47903 234 ft 84 kts 264°
2026-05-01 14:30 31.87883 131.47224 166 ft 81 kts 268°
2026-05-01 14:31 31.87786 131.45878 34 ft 82 kts 266°
2026-05-01 14:31 31.87748 131.45337 26 ft 44 kts 265°
2026-05-01 14:31 31.87734 131.45136 26 ft 15 kts 269°
2026-05-01 14:31 31.87806 131.45069 28 ft 15 kts 300°
2026-05-01 14:32 31.87859 131.44942 29 ft 19 kts 295°
2026-05-01 14:32 31.87873 131.44802 30 ft 18 kts 265°
2026-05-01 14:32 31.87861 131.44638 30 ft 21 kts 265°
2026-05-01 14:32 31.87848 131.44454 30 ft 24 kts 266°
2026-05-01 14:33 31.87838 131.44310 29 ft 11 kts 265°
2026-05-01 14:33 31.87844 131.44246 30 ft 9 kts 339°
2026-05-01 14:33 31.87865 131.44257 30 ft 1 kts 95°
2026-05-01 14:33 31.87865 131.44260 30 ft 0 kts 85°